Antti Toivio

Recruteur en chef - HJK
5 Déc 2027
Dimanche
Processus

Personnalité

Adaptabilité (1) Ambition (10) Controverse (1) Loyauté (16) Pression (10) Professionnalisme (3) Sportivité (19) Tempérament (3)

Profil

Style d'entraînement Démocratique
Diplôme Continental B
Détermination 8
Gestion des joueurs 7
Motivation 11
Discipline 11
Satisfaction professionnelle
100%
Fatigue
0%
Rôle Recruteur en chef
Salaire 54.6K p/s
Contrat 14.03.2030

Performance

Comportement Bon
Efficacité de l'entraînement
38%
Développement des joueurs
30%
Prévention des blessures
40%
Mise en place tactique
45%

Événements récents

A évalué un joueur maintenant
A participé à une réunion de recrutement maintenant
A recommandé une cible de transfert maintenant
A recommandé une cible de transfert maintenant
A participé à une réunion de recrutement 7j
A évalué un joueur 7j
A évalué un joueur 7j
A évalué un joueur 7j

Suivi en cours

79
Joueur Club Statut Capacité Confiance Observé Dernière observation Dernier vote
Daniel Barrea Godoy Cruz Actif 119 / 120 40% 3 03.12.2027 -
Carlos De Las Salas Real Cartagena Actif 123 / 121 40% 2 03.12.2027 -
Franco Camargo Gimnasia y Esgrima Actif 110 / 105 40% 1 03.12.2027 -
Ramón González Almirante Brown Actif 108 / 115 40% 2 29.11.2027 -
Rodrigo González Mitre Actif 116 / 121 40% 5 29.11.2027 -
Johan Campaña Patriotas Actif 108 / 118 40% 2 29.11.2027 -
Nicolás Retamar Ferro Carril Oeste Actif 123 / 110 40% 2 28.11.2027 -
Giorgi Beridze Dinamo Tbilisi Actif 114 / 98 40% 3 28.11.2027 -
Leandro Allende Colón Actif 117 / 110 40% 3 28.11.2027 -
Thiago Calone All Boys Actif 111 / 117 40% 1 24.11.2027 -
Fernando Martínez Central Córdoba SdE Actif 121 / 123 40% 1 24.11.2027 -
Santiago Sala Güemes Actif 111 / 119 40% 1 23.11.2027 -
Alejo Dramisino Atlanta Actif 119 / 113 40% 3 22.11.2027 -
Elías Báez Atlanta United FC Actif 130 / 130 40% 1 22.11.2027 -
Franco García Colón Actif 118 / 113 40% 1 22.11.2027 -
Tomás Fernández Aldosivi Actif 121 / 111 40% 2 21.11.2027 -
Joel Orlando Almagro Actif 109 / 112 40% 1 21.11.2027 -
Emiliano Viveros Argentinos Juniors Actif 119 / 119 40% 1 21.11.2027 -
Diego Gaitán Maipú Actif 111 / 116 40% 2 20.11.2027 -
Augusto Berrondo Tristán Suárez Actif 107 / 104 40% 2 19.11.2027 -
Nicolás Laméndola Atlético Tucumán Actif 119 / 122 40% 1 19.11.2027 -
Iñaki Larthirigoyen San Telmo Actif 117 / 130 40% 2 18.11.2027 -
Renzo Tesuri Atlético Tucumán Actif 129 / 125 40% 1 18.11.2027 -
Santiago Martínez Godoy Cruz Actif 109 / 117 40% 1 18.11.2027 -
Facundo Altamira Godoy Cruz Actif 125 / 131 40% 1 17.11.2027 -
Gastón Moreyra Almirante Brown Actif 115 / 116 40% 1 17.11.2027 -
Pedro Souto Temperley Actif 114 / 115 40% 1 17.11.2027 -
Santiago Patroni Defensores Unidos Actif 108 / 106 40% 2 16.11.2027 -
Julián Cosi Madryn Actif 111 / 115 40% 1 16.11.2027 -
Estanislao Jara Madryn Actif 108 / 113 40% 1 16.11.2027 -
Alexandr Lomovitskiy Torpedo-BelAZ Actif 105 / 100 40% 1 15.11.2027 -
Fabián Suárez Chalares Aguilas Doradas Actif 109 / 112 40% 2 14.11.2027 -
Cristian Zabala Sarmiento Actif 121 / 122 40% 2 13.11.2027 -
Juan Infante Atlético Tucumán Actif 120 / 118 40% 1 11.11.2027 -
Antony Alonso Deportivo Riestra Actif 127 / 115 40% 1 11.11.2027 -
Maico Quiroz Güemes Actif 112 / 117 40% 1 11.11.2027 -
Fernando Bersano Madryn Actif 121 / 118 40% 1 09.11.2027 -
Bautista Carboni Defensores Unidos Actif 109 / 114 40% 1 08.11.2027 -
Franco Vedoya Central Norte Actif 113 / 109 40% 1 04.11.2027 -
Elías Contreras Morón Actif 118 / 112 40% 1 03.11.2027 -
Kasper Paananen SJK Négociation 109 / 108 76% 1 16.08.2027 Approuver
Jaime Moreno KuPS Perdu 110 / 113 76% 1 02.08.2027 -
Martti Haukioja VPS Actif 91 / 95 76% 1 17.07.2027 Approuver
Rodrigo Freitas KTP Actif 62 / 65 30% 1 / 1m 12.05.2027 -
Garrik Levin Chelyabinsk Actif 92 / 95 40% 1 24.02.2027 -
Reda Khadra Qarabag Actif 136 / 142 40% 1 18.02.2027 -
Ronaldo Vásquez Sumgayit Actif 111 / 106 40% 1 18.02.2027 -
Temirkan Sundukov Dinamo Makhachkala Actif 102 / 122 40% 3 17.02.2027 -
Đorđe Pantelić Spartak Kostroma Actif 107 / 96 40% 1 17.02.2027 -
Kirill Danilin Ural Actif 116 / 108 40% 1 17.02.2027 -
Bojan Roganović Torpedo Moscow Actif 106 / 109 40% 2 30.01.2027 -
Tomás Ribeiro Cultural Leonesa Actif 127 / 109 40% 3 28.01.2027 -
Pavel Maslov Chaika Actif 107 / 108 40% 1 28.01.2027 -
Marat Bokoev Akron Actif 112 / 111 40% 4 27.01.2027 -
Robert Mejía Orenburg Actif 122 / 108 40% 1 27.01.2027 -
Nathan Gassama Baltika Actif 110 / 110 40% 2 26.01.2027 Plus d'infos
Rodrigo González Aldosivi Actif 121 / 114 40% 1 26.01.2027 -
Gonzalo Gamarra Floriana Actif 106 / 88 40% 1 25.01.2027 -
Mateo Ortale Khazar Actif 96 / 118 40% 1 25.01.2027 -
Alex Bangura Middlesbrough Actif 124 / 129 40% 2 23.01.2027 -
Edgardo Fariña Nizhniy Novgorod Actif 116 / 121 40% 1 20.01.2027 -
Kauan Floriana Actif 104 / 87 40% 2 19.01.2027 -
Zakaria El Ouahdi Hamburger SV Actif 135 / 129 40% 1 19.01.2027 -
Arsen Adamov Akhmat Grozny Actif 126 / 123 40% 1 18.01.2027 -
Ivan Giraldo Valencia Actif 114 / 131 40% 2 12.01.2027 -
Pedro Bicalho Qarabag Actif 122 / 126 40% 1 08.01.2027 -
Keffel Sumgayit Actif 116 / 120 40% 1 07.01.2027 -
Ruslan Litvinov Spartak Moscow Actif 135 / 123 40% 1 18.12.2026 -
Francho Serrano Getafe Actif 112 / 110 40% 1 06.10.2026 -
Manu Morlanes Mallorca Actif 144 / 146 40% 1 06.10.2026 -
Kamil Conteh Bristol Rovers Actif 107 / 102 40% 1 05.10.2026 -
Benjamin Böckle Altach Actif 109 / 102 40% 1 08.09.2026 -
Jandro Orellana Cádiz Actif 119 / 110 40% 1 08.09.2026 -
Ewan Henderson Wycombe Wanderers Actif 117 / 112 40% 1 08.09.2026 -
Patricio Pizarro Huracán Actif 116 / 107 40% 1 07.09.2026 -
Joaquín Rivero Instituto Actif 86 / 99 40% 1 03.08.2026 -
Rafael Lopes Anorthosis Actif 109 / 117 40% 1 03.08.2026 -
Carles Pérez Girona Actif 123 / 119 40% 1 01.08.2026 -
Urko Izeta Cádiz Actif 125 / 139 40% 1 01.08.2026 -